createdAt,value
2023-11-15T00:01:16.482Z,100755.19
2023-11-15T00:03:43.964Z,100761.47
2023-11-15T00:06:13.688Z,100763.44
2023-11-15T00:08:40.745Z,100775.63
2023-11-15T00:11:10.931Z,100770.34
2023-11-15T00:13:38.587Z,100774.13
2023-11-15T00:16:06.096Z,100770.50
2023-11-15T00:18:33.027Z,100774.31
2023-11-15T00:20:59.967Z,100780.41
2023-11-15T00:23:27.985Z,100785.50
2023-11-15T00:25:56.097Z,100783.22
2023-11-15T00:28:23.768Z,100786.66
2023-11-15T00:30:51.034Z,100788.47
2023-11-15T00:33:19.111Z,100789.47
2023-11-15T00:35:46.788Z,100793.06
2023-11-15T00:38:16.412Z,100789.63
2023-11-15T00:40:43.682Z,100777.75
2023-11-15T00:43:10.902Z,100782.03
2023-11-15T00:45:37.994Z,100773.13
2023-11-15T00:48:06.172Z,100785.81
2023-11-15T00:50:33.246Z,100784.34
2023-11-15T00:53:00.383Z,100777.03
2023-11-15T00:55:27.429Z,100777.03
2023-11-15T00:57:54.377Z,100790.88
2023-11-15T01:00:28.651Z,100794.06
2023-11-15T01:03:02.897Z,100791.56
2023-11-15T01:05:30.346Z,100791.91
2023-11-15T01:07:57.402Z,100801.28
2023-11-15T01:10:26.349Z,100800.31
2023-11-15T01:12:54.909Z,100805.56
2023-11-15T01:15:23.340Z,100804.41
2023-11-15T01:17:51.165Z,100810.38
2023-11-15T01:20:18.609Z,100815.28
2023-11-15T01:22:45.627Z,100818.75
2023-11-15T01:25:14.077Z,100822.22
2023-11-15T01:27:41.131Z,100822.06
2023-11-15T01:30:10.218Z,100828.00
2023-11-15T01:32:37.342Z,100830.81
2023-11-15T01:35:06.996Z,100834.75
2023-11-15T01:37:33.971Z,100836.38
2023-11-15T01:40:08.017Z,100836.72
2023-11-15T01:42:35.349Z,100850.72
2023-11-15T01:45:04.201Z,100848.59
2023-11-15T01:47:31.664Z,100843.47
2023-11-15T01:49:59.493Z,100847.75
2023-11-15T01:52:26.923Z,100848.09
2023-11-15T01:54:56.645Z,100845.75
2023-11-15T01:57:24.237Z,100842.47
2023-11-15T01:59:51.984Z,100849.56
2023-11-15T02:02:19.014Z,100853.47
2023-11-15T02:04:45.928Z,100853.97
2023-11-15T02:07:13.183Z,100860.06
2023-11-15T02:09:42.523Z,100855.72
2023-11-15T02:12:10.736Z,100857.84
2023-11-15T02:14:39.061Z,100864.09
2023-11-15T02:17:06.683Z,100859.97
2023-11-15T02:19:34.261Z,100864.44
2023-11-15T02:22:01.161Z,100872.00
2023-11-15T02:24:28.349Z,100874.34
2023-11-15T02:26:55.305Z,100878.59
2023-11-15T02:29:22.640Z,100874.00
2023-11-15T02:31:49.522Z,100874.50
2023-11-15T02:34:16.429Z,100873.19
2023-11-15T02:36:44.335Z,100871.53
2023-11-15T02:39:11.905Z,100874.16
2023-11-15T02:41:38.846Z,100869.56
2023-11-15T02:44:05.998Z,100873.50
2023-11-15T02:46:32.940Z,100877.59
2023-11-15T02:48:59.970Z,100876.63
2023-11-15T02:51:26.981Z,100879.06
2023-11-15T02:53:53.983Z,100872.00
2023-11-15T02:56:20.984Z,100868.06
2023-11-15T02:58:48.053Z,100872.19
2023-11-15T03:01:15.918Z,100876.78
2023-11-15T03:03:43.304Z,100874.78
2023-11-15T03:06:11.031Z,100873.44
2023-11-15T03:08:38.281Z,100880.72
2023-11-15T03:11:05.629Z,100881.22
2023-11-15T03:13:32.773Z,100879.25
2023-11-15T03:15:59.781Z,100871.16
2023-11-15T03:18:27.184Z,100884.69
2023-11-15T03:20:54.400Z,100879.91
2023-11-15T03:23:21.298Z,100878.94
2023-11-15T03:25:48.207Z,100882.53
2023-11-15T03:28:15.122Z,100886.84
2023-11-15T03:30:41.964Z,100889.94
2023-11-15T03:33:09.025Z,100902.28
2023-11-15T03:35:36.525Z,100904.41
2023-11-15T03:38:03.470Z,100898.63
2023-11-15T03:40:30.493Z,100907.34
2023-11-15T03:42:57.396Z,100906.22
2023-11-15T03:45:24.325Z,100907.88
2023-11-15T03:47:51.301Z,100911.03
2023-11-15T03:50:19.822Z,100916.16
2023-11-15T03:52:46.745Z,100919.59
2023-11-15T03:55:14.344Z,100920.88
2023-11-15T03:57:42.264Z,100922.88
2023-11-15T04:00:12.000Z,100928.78
2023-11-15T04:02:39.282Z,100930.44
2023-11-15T04:05:08.019Z,100934.06
2023-11-15T04:07:35.013Z,100946.94
2023-11-15T04:10:02.560Z,100948.88
2023-11-15T04:12:29.525Z,100941.81
2023-11-15T04:14:56.428Z,100938.19
2023-11-15T04:17:23.524Z,100950.69
2023-11-15T04:19:50.522Z,100958.09
2023-11-15T04:22:18.086Z,100947.56
2023-11-15T04:24:45.830Z,100954.16
2023-11-15T04:27:14.457Z,100956.47
2023-11-15T04:29:45.150Z,100955.00
2023-11-15T04:32:12.097Z,100943.75
2023-11-15T04:34:39.088Z,100952.81
2023-11-15T04:37:06.237Z,100952.31
2023-11-15T04:39:33.136Z,100954.94
2023-11-15T04:42:00.142Z,100958.56
2023-11-15T04:44:29.008Z,100956.69
2023-11-15T04:46:56.457Z,100949.94
2023-11-15T04:49:23.416Z,100961.31
2023-11-15T04:51:50.336Z,100965.75
2023-11-15T04:54:17.255Z,100970.69
2023-11-15T04:56:44.203Z,100967.06
2023-11-15T04:59:11.130Z,100968.19
2023-11-15T05:01:39.350Z,100974.16
2023-11-15T05:04:06.640Z,100974.00
2023-11-15T05:06:33.856Z,100976.94
2023-11-15T05:09:01.078Z,100983.63
2023-11-15T05:11:28.058Z,100983.34
2023-11-15T05:13:55.069Z,100988.28
2023-11-15T05:16:22.078Z,100987.19
2023-11-15T05:18:49.409Z,100989.44
2023-11-15T05:21:16.363Z,100993.19
2023-11-15T05:23:43.331Z,100992.22
2023-11-15T05:26:10.702Z,101001.78
2023-11-15T05:28:37.842Z,100994.16
2023-11-15T05:31:05.077Z,100999.00
2023-11-15T05:33:32.113Z,101004.09
2023-11-15T05:35:59.204Z,101004.94
2023-11-15T05:38:26.334Z,101004.94
2023-11-15T05:40:53.643Z,100997.03
2023-11-15T05:43:20.532Z,101007.56
2023-11-15T05:45:47.448Z,101008.03
2023-11-15T05:48:14.526Z,101010.34
2023-11-15T05:50:41.700Z,101013.97
2023-11-15T05:53:09.613Z,101022.34
2023-11-15T05:55:36.562Z,101019.25
2023-11-15T05:58:04.937Z,101018.09
2023-11-15T06:00:33.101Z,101017.28
2023-11-15T06:03:00.159Z,101018.78
2023-11-15T06:05:27.251Z,101024.88
2023-11-15T06:07:54.316Z,101020.50
2023-11-15T06:10:21.263Z,101027.63
2023-11-15T06:12:48.194Z,101029.56
2023-11-15T06:15:15.713Z,101020.13
2023-11-15T06:17:43.649Z,101021.81
2023-11-15T06:20:11.712Z,101025.28
2023-11-15T06:22:43.293Z,101025.72
2023-11-15T06:25:10.731Z,101023.91
2023-11-15T06:27:38.944Z,101033.63
2023-11-15T06:30:10.925Z,101025.59
2023-11-15T06:32:38.085Z,101018.13
2023-11-15T06:35:05.871Z,101027.00
2023-11-15T06:37:35.390Z,101031.31
2023-11-15T06:40:09.265Z,101033.78
2023-11-15T06:42:36.512Z,101036.72
2023-11-15T06:45:04.858Z,101038.53
2023-11-15T06:47:31.827Z,101038.38
2023-11-15T06:50:02.026Z,101045.59
2023-11-15T06:52:29.644Z,101050.72
2023-11-15T06:54:57.528Z,101050.56
2023-11-15T06:57:24.683Z,101057.66
2023-11-15T06:59:54.980Z,101059.59
2023-11-15T07:02:22.444Z,101062.22
2023-11-15T07:04:49.310Z,101065.69
2023-11-15T07:07:16.191Z,101053.13
2023-11-15T07:09:45.723Z,101068.09
2023-11-15T07:12:12.908Z,101067.81
2023-11-15T07:14:39.935Z,101074.56
2023-11-15T07:17:09.018Z,101082.00
2023-11-15T07:19:35.933Z,101077.72
2023-11-15T07:22:02.828Z,101091.44
2023-11-15T07:24:30.407Z,101095.72
2023-11-15T07:26:58.176Z,101093.38
2023-11-15T07:29:27.718Z,101098.94
2023-11-15T07:31:55.009Z,101101.03
2023-11-15T07:34:25.073Z,101093.00
2023-11-15T07:36:55.196Z,101105.06
2023-11-15T07:39:22.180Z,101106.53
2023-11-15T07:41:49.158Z,101102.94
2023-11-15T07:44:19.634Z,101110.16
2023-11-15T07:46:48.239Z,101114.75
2023-11-15T07:49:19.972Z,101120.03
2023-11-15T07:51:47.423Z,101117.22
2023-11-15T07:54:15.513Z,101128.31
2023-11-15T07:56:43.639Z,101118.03
2023-11-15T07:59:12.610Z,101129.59
2023-11-15T08:01:45.833Z,101127.31
2023-11-15T08:04:16.007Z,101134.41
2023-11-15T08:06:43.916Z,101134.59
2023-11-15T08:09:26.444Z,101131.59
2023-11-15T08:11:54.779Z,101138.53
2023-11-15T08:14:22.986Z,101141.94
2023-11-15T08:16:53.420Z,101138.09
2023-11-15T08:19:20.392Z,101140.19
2023-11-15T08:21:49.232Z,101142.16
2023-11-15T08:24:22.851Z,101142.00
2023-11-15T08:26:59.350Z,101145.16
2023-11-15T08:29:26.317Z,101145.81
2023-11-15T08:31:53.259Z,101142.91
2023-11-15T08:34:24.049Z,101158.56
2023-11-15T08:36:53.615Z,101157.56
2023-11-15T08:39:24.202Z,101158.25
2023-11-15T08:41:51.323Z,101158.78
2023-11-15T08:44:19.514Z,101162.09
2023-11-15T08:46:47.028Z,101166.22
2023-11-15T08:49:15.181Z,101168.72
2023-11-15T08:51:46.659Z,101176.50
2023-11-15T08:54:13.838Z,101177.31
2023-11-15T08:56:43.709Z,101180.34
2023-11-15T08:59:15.573Z,101178.94
2023-11-15T09:01:44.098Z,101183.19
2023-11-15T09:04:14.664Z,101181.94
2023-11-15T09:06:49.272Z,101182.13
2023-11-15T09:09:17.520Z,101189.44
2023-11-15T09:11:44.881Z,101186.66
2023-11-15T09:14:12.000Z,101197.88
2023-11-15T09:16:38.929Z,101198.09
2023-11-15T09:19:06.278Z,101203.22
2023-11-15T09:21:34.971Z,101192.34
2023-11-15T09:24:02.631Z,101196.06
2023-11-15T09:26:29.719Z,101189.78
2023-11-15T09:28:56.648Z,101190.44
2023-11-15T09:31:24.355Z,101186.97
2023-11-15T09:33:53.613Z,101184.19
2023-11-15T09:36:20.780Z,101185.72
2023-11-15T09:38:47.748Z,101184.56
2023-11-15T09:41:14.794Z,101176.78
2023-11-15T09:43:42.971Z,101179.78
2023-11-15T09:46:14.168Z,101186.94
2023-11-15T09:48:53.392Z,101180.50
2023-11-15T09:51:27.578Z,101183.50
2023-11-15T09:54:05.223Z,101180.72
2023-11-15T09:56:42.306Z,101186.84
2023-11-15T10:01:43.217Z,101179.59
2023-11-15T10:04:21.418Z,101176.50
2023-11-15T10:06:48.888Z,101174.69
2023-11-15T10:09:16.335Z,101176.50
2023-11-15T10:11:49.675Z,101181.44
2023-11-15T10:14:17.049Z,101173.53
2023-11-15T10:16:49.932Z,101188.41
2023-11-15T10:19:28.089Z,101184.81
2023-11-15T10:22:02.399Z,101180.34
2023-11-15T10:24:29.925Z,101201.00
2023-11-15T10:27:08.930Z,101192.25
2023-11-15T10:29:39.159Z,101183.69
2023-11-15T10:32:06.489Z,101186.13
2023-11-15T10:34:34.846Z,101181.06
2023-11-15T10:37:13.805Z,101179.59
2023-11-15T10:39:51.419Z,101187.03
2023-11-15T10:42:20.300Z,101188.22
2023-11-15T10:44:49.625Z,101187.06
2023-11-15T10:47:20.958Z,101188.91
2023-11-15T10:49:58.192Z,101189.06
2023-11-15T10:52:26.343Z,101196.97
2023-11-15T10:54:57.948Z,101192.34
2023-11-15T10:57:29.214Z,101187.91
2023-11-15T10:59:57.927Z,101197.19
2023-11-15T11:02:26.697Z,101200.28
2023-11-15T11:04:55.928Z,101207.41
2023-11-15T11:07:45.109Z,101207.91
2023-11-15T11:10:33.117Z,101206.91
2023-11-15T11:13:00.113Z,101209.22
2023-11-15T11:15:33.897Z,101212.34
2023-11-15T11:18:28.703Z,101214.88
2023-11-15T11:21:03.663Z,101203.69
2023-11-15T11:23:35.368Z,101202.72
2023-11-15T11:26:35.664Z,101205.50
2023-11-15T11:29:04.697Z,101213.44
2023-11-15T11:31:32.111Z,101227.19
2023-11-15T11:34:26.412Z,101221.56
2023-11-15T11:37:00.107Z,101208.22
2023-11-15T11:39:47.607Z,101212.03
2023-11-15T11:42:25.734Z,101216.81
2023-11-15T11:44:56.715Z,101220.59
2023-11-15T11:47:24.733Z,101222.94
2023-11-15T11:49:53.579Z,101230.03
2023-11-15T11:52:22.283Z,101232.19
2023-11-15T11:54:54.217Z,101229.41
2023-11-15T11:57:28.392Z,101227.09
2023-11-15T12:00:20.528Z,101221.97
2023-11-15T12:02:54.458Z,101229.75
2023-11-15T12:05:27.225Z,101223.13
2023-11-15T12:07:56.445Z,101231.56
2023-11-15T12:10:24.657Z,101229.25
2023-11-15T12:13:07.093Z,101238.84
2023-11-15T12:15:37.630Z,101243.16
2023-11-15T12:18:06.830Z,101237.03
2023-11-15T12:20:41.070Z,101234.53
2023-11-15T12:23:09.689Z,101242.34
2023-11-15T12:25:57.130Z,101255.72
2023-11-15T12:28:32.781Z,101250.78
2023-11-15T12:31:05.471Z,101248.13
2023-11-15T12:33:35.929Z,101244.16
2023-11-15T12:36:08.238Z,101262.34
2023-11-15T12:38:35.942Z,101260.38
2023-11-15T12:41:07.757Z,101256.75
2023-11-15T12:43:35.666Z,101250.63
2023-11-15T12:46:16.358Z,101264.00
2023-11-15T12:48:46.962Z,101264.50
2023-11-15T12:51:13.946Z,101260.88
2023-11-15T12:53:42.954Z,101260.72
2023-11-15T12:56:18.852Z,101264.19
2023-11-15T12:58:49.759Z,101255.75
2023-11-15T13:01:19.417Z,101256.41
2023-11-15T13:03:48.373Z,101257.06
2023-11-15T13:06:17.578Z,101262.22
2023-11-15T13:08:49.729Z,101267.69
2023-11-15T13:11:26.420Z,101262.53
2023-11-15T13:13:53.968Z,101270.47
2023-11-15T13:16:23.536Z,101270.31
2023-11-15T13:18:51.353Z,101279.75
2023-11-15T13:21:21.028Z,101275.94
2023-11-15T13:23:49.354Z,101273.44
2023-11-15T13:26:16.970Z,101270.16
2023-11-15T13:28:45.841Z,101279.72
2023-11-15T13:31:17.008Z,101280.53
2023-11-15T13:33:49.680Z,101290.94
2023-11-15T13:36:23.328Z,101286.97
2023-11-15T13:38:50.615Z,101291.59
2023-11-15T13:41:23.688Z,101281.16
2023-11-15T13:43:53.797Z,101286.28
2023-11-15T13:46:24.911Z,101282.47
2023-11-15T13:48:54.343Z,101288.06
2023-11-15T13:51:23.185Z,101292.84
2023-11-15T13:53:50.494Z,101291.03
2023-11-15T13:56:17.495Z,101286.59
2023-11-15T13:58:44.432Z,101281.13
2023-11-15T14:01:12.433Z,101284.78
2023-11-15T14:03:40.060Z,101288.69
2023-11-15T14:06:08.397Z,101301.47
2023-11-15T14:08:50.999Z,101295.50
2023-11-15T14:11:25.714Z,101301.63
2023-11-15T14:13:52.800Z,101299.47
2023-11-15T14:16:22.488Z,101293.19
2023-11-15T14:18:51.782Z,101290.56
2023-11-15T14:21:18.979Z,101283.94
2023-11-15T14:23:46.023Z,101280.13
2023-11-15T14:26:15.607Z,101271.06
2023-11-15T14:28:45.010Z,101282.97
2023-11-15T14:31:12.407Z,101285.47
2023-11-15T14:33:40.227Z,101271.41
2023-11-15T14:36:12.847Z,101282.16
2023-11-15T14:38:39.899Z,101287.44
2023-11-15T14:41:07.183Z,101284.28
2023-11-15T14:43:35.001Z,101286.94
2023-11-15T14:46:02.809Z,101293.22
2023-11-15T14:48:30.123Z,101302.94
2023-11-15T14:50:58.954Z,101301.13
2023-11-15T14:53:26.246Z,101307.75
2023-11-15T14:55:53.362Z,101311.03
2023-11-15T14:58:20.442Z,101316.66
2023-11-15T15:00:48.080Z,101315.97
2023-11-15T15:03:16.447Z,101325.06
2023-11-15T15:05:43.593Z,101319.09
2023-11-15T15:08:13.358Z,101322.91
2023-11-15T15:10:40.518Z,101319.09
2023-11-15T15:13:11.354Z,101321.38
2023-11-15T15:15:40.204Z,101319.84
2023-11-15T15:18:13.444Z,101313.38
2023-11-15T15:20:45.439Z,101314.53
2023-11-15T15:23:14.328Z,101313.03
2023-11-15T15:25:43.220Z,101325.59
2023-11-15T15:28:13.943Z,101331.84
2023-11-15T15:30:40.889Z,101327.56
2023-11-15T15:33:08.996Z,101321.63
2023-11-15T15:35:36.543Z,101330.53
2023-11-15T15:38:04.130Z,101333.31
2023-11-15T15:40:36.725Z,101328.03
2023-11-15T15:43:05.549Z,101327.63
2023-11-15T15:45:32.588Z,101322.50
2023-11-15T15:48:00.652Z,101324.63
2023-11-15T15:50:28.334Z,101326.44
2023-11-15T15:52:56.464Z,101322.13
2023-11-15T15:55:23.911Z,101324.13
2023-11-15T15:57:51.144Z,101320.97
2023-11-15T16:00:18.804Z,101330.38
2023-11-15T16:02:48.604Z,101331.53
2023-11-15T16:05:17.815Z,101328.06
2023-11-15T16:07:47.627Z,101327.84
2023-11-15T16:10:14.950Z,101331.16
2023-11-15T16:12:42.036Z,101334.81
2023-11-15T16:15:18.338Z,101339.53
2023-11-15T16:17:46.538Z,101341.53
2023-11-15T16:26:47.982Z,101349.22
2023-11-15T16:29:19.081Z,101344.09
2023-11-15T16:35:22.046Z,101353.63
2023-11-15T16:37:54.759Z,101358.22
2023-11-15T16:41:14.714Z,101356.09
2023-11-15T16:43:42.170Z,101365.03
2023-11-15T16:46:12.009Z,101366.81
2023-11-15T16:48:39.610Z,101361.69
2023-11-15T16:51:07.511Z,101370.59
2023-11-15T16:53:34.515Z,101363.66
2023-11-15T16:56:01.672Z,101365.47
2023-11-15T16:58:28.651Z,101362.66
2023-11-15T17:00:55.667Z,101359.50
2023-11-15T17:03:24.338Z,101356.19
2023-11-15T17:06:01.114Z,101359.84
2023-11-15T17:08:28.781Z,101361.09
2023-11-15T17:10:55.768Z,101361.09
2023-11-15T17:13:24.332Z,101354.97
2023-11-15T17:15:52.736Z,101354.00
2023-11-15T17:18:19.964Z,101359.28
2023-11-15T17:20:47.031Z,101361.28
2023-11-15T17:23:14.006Z,101359.22
2023-11-15T17:25:41.403Z,101354.59
2023-11-15T17:28:10.591Z,101356.59
2023-11-15T17:30:38.177Z,101362.16
2023-11-15T17:33:05.504Z,101355.25
2023-11-15T17:35:32.585Z,101359.13
2023-11-15T17:37:59.669Z,101361.13
2023-11-15T17:40:26.567Z,101354.19
2023-11-15T17:42:53.571Z,101349.88
2023-11-15T17:45:20.537Z,101340.28
2023-11-15T17:47:47.754Z,101343.09
2023-11-15T17:50:14.910Z,101357.59
2023-11-15T17:52:43.697Z,101351.47
2023-11-15T17:55:15.611Z,101355.91
2023-11-15T17:57:45.079Z,101355.22
2023-11-15T18:00:14.472Z,101353.75
2023-11-15T18:02:42.678Z,101355.69
2023-11-15T18:05:13.933Z,101360.91
2023-11-15T18:07:44.729Z,101371.06
2023-11-15T18:10:14.802Z,101370.91
2023-11-15T18:12:43.389Z,101368.13
2023-11-15T18:15:11.288Z,101365.63
2023-11-15T18:17:38.318Z,101366.91
2023-11-15T18:20:08.763Z,101377.59
2023-11-15T18:22:35.791Z,101376.22
2023-11-15T18:25:05.844Z,101379.56
2023-11-15T18:27:34.136Z,101377.22
2023-11-15T18:30:03.403Z,101379.47
2023-11-15T18:32:30.528Z,101372.69
2023-11-15T18:34:57.791Z,101387.16
2023-11-15T18:37:24.812Z,101388.94
2023-11-15T18:39:52.781Z,101395.06
2023-11-15T18:42:20.166Z,101384.97
2023-11-15T18:44:47.483Z,101388.84
2023-11-15T18:47:14.504Z,101384.41
2023-11-15T18:49:50.453Z,101385.53
2023-11-15T18:52:17.478Z,101380.69
2023-11-15T18:54:44.463Z,101388.72
2023-11-15T18:57:11.547Z,101386.22
2023-11-15T18:59:42.757Z,101383.88
2023-11-15T19:02:09.721Z,101385.69
2023-11-15T19:04:36.746Z,101388.63
2023-11-15T19:07:06.784Z,101386.00
2023-11-15T19:09:47.403Z,101383.38
2023-11-15T19:12:14.466Z,101395.53
2023-11-15T19:14:41.470Z,101394.19
2023-11-15T19:17:10.597Z,101396.16
2023-11-15T19:19:46.826Z,101395.44
2023-11-15T19:22:13.833Z,101399.06
2023-11-15T19:24:40.752Z,101392.28
2023-11-15T19:27:09.147Z,101388.66
2023-11-15T19:29:49.955Z,101394.34
2023-11-15T19:32:17.343Z,101392.72
2023-11-15T19:34:45.216Z,101400.38
2023-11-15T19:37:12.234Z,101397.31
2023-11-15T19:39:45.323Z,101393.72
2023-11-15T19:42:13.728Z,101389.44
2023-11-15T19:44:42.084Z,101388.88
2023-11-15T19:47:09.867Z,101390.13
2023-11-15T19:49:36.851Z,101393.91
2023-11-15T19:52:11.077Z,101390.56
2023-11-15T19:54:38.026Z,101386.28
2023-11-15T19:57:06.417Z,101391.03
2023-11-15T19:59:55.496Z,101389.50
2023-11-15T20:02:23.836Z,101385.34
2023-11-15T20:04:52.337Z,101382.88
2023-11-15T20:07:19.378Z,101393.41
2023-11-15T20:09:54.861Z,101389.25
2023-11-15T20:12:24.875Z,101386.75
2023-11-15T20:14:52.081Z,101388.44
2023-11-15T20:17:19.212Z,101390.09
2023-11-15T20:19:48.706Z,101397.28
2023-11-15T20:22:16.111Z,101392.56
2023-11-15T20:24:43.105Z,101388.28
2023-11-15T20:27:10.294Z,101382.34
2023-11-15T20:29:46.630Z,101387.72
2023-11-15T20:32:13.658Z,101386.91
2023-11-15T20:34:40.668Z,101377.50
2023-11-15T20:37:07.884Z,101365.16
2023-11-15T20:39:37.008Z,101361.00
2023-11-15T20:42:04.140Z,101353.41
2023-11-15T20:44:31.733Z,101357.53
2023-11-15T20:47:04.145Z,101350.19
2023-11-15T20:49:32.674Z,101366.81
2023-11-15T20:51:59.661Z,101358.63
2023-11-15T20:54:31.362Z,101365.56
2023-11-15T20:57:00.261Z,101370.00
2023-11-15T20:59:27.288Z,101364.03
2023-11-15T21:01:54.642Z,101365.16
2023-11-15T21:04:22.531Z,101370.69
2023-11-15T21:06:50.083Z,101380.97
2023-11-15T21:09:17.231Z,101386.34
2023-11-15T21:11:45.070Z,101388.16
2023-11-15T21:14:12.570Z,101375.94
2023-11-15T21:16:40.720Z,101377.91
2023-11-15T21:19:10.743Z,101375.28
2023-11-15T21:21:38.457Z,101367.66
2023-11-15T21:24:09.452Z,101362.38
2023-11-15T21:26:36.688Z,101366.16
2023-11-15T21:29:09.867Z,101357.84
2023-11-15T21:31:38.287Z,101358.94
2023-11-15T21:34:07.263Z,101348.41
2023-11-15T21:36:38.173Z,101362.69
2023-11-15T21:39:07.312Z,101355.22
2023-11-15T21:41:34.440Z,101364.38
2023-11-15T21:44:02.706Z,101357.88
2023-11-15T21:46:32.440Z,101372.09
2023-11-15T21:49:01.886Z,101374.06
2023-11-15T21:51:29.183Z,101372.25
2023-11-15T21:53:57.393Z,101379.31
2023-11-15T21:56:24.352Z,101376.81
2023-11-15T21:58:51.342Z,101368.81
2023-11-15T22:01:18.443Z,101362.53
2023-11-15T22:03:46.167Z,101365.06
2023-11-15T22:06:13.170Z,101375.88
2023-11-15T22:08:40.390Z,101372.41
2023-11-15T22:11:07.722Z,101374.63
2023-11-15T22:13:34.984Z,101380.84
2023-11-15T22:16:02.417Z,101382.09
2023-11-15T22:18:30.733Z,101371.41
2023-11-15T22:20:58.480Z,101372.09
2023-11-15T22:23:26.053Z,101357.59
2023-11-15T22:25:53.173Z,101360.22
2023-11-15T22:28:20.304Z,101357.88
2023-11-15T22:30:48.425Z,101355.25
2023-11-15T22:33:15.879Z,101356.63
2023-11-15T22:35:49.710Z,101361.59
2023-11-15T22:38:17.904Z,101362.53
2023-11-15T22:40:44.904Z,101356.75
2023-11-15T22:43:12.234Z,101357.03
2023-11-15T22:45:39.490Z,101369.06
2023-11-15T22:48:07.534Z,101365.06
2023-11-15T22:50:34.698Z,101365.19
2023-11-15T22:53:01.744Z,101356.16
2023-11-15T22:55:28.726Z,101359.78
2023-11-15T22:57:55.623Z,101365.19
2023-11-15T23:00:37.955Z,101359.09
2023-11-15T23:03:10.817Z,101362.53
2023-11-15T23:05:40.106Z,101352.03
2023-11-15T23:08:10.584Z,101363.25
2023-11-15T23:10:40.052Z,101354.53
2023-11-15T23:13:07.551Z,101349.66
2023-11-15T23:15:35.107Z,101346.91
2023-11-15T23:18:02.552Z,101352.53
2023-11-15T23:20:35.280Z,101342.72
2023-11-15T23:23:03.281Z,101348.81
2023-11-15T23:25:30.777Z,101347.56
2023-11-15T23:27:57.848Z,101344.94
2023-11-15T23:30:25.607Z,101342.44
2023-11-15T23:32:56.427Z,101343.81
2023-11-15T23:35:26.533Z,101345.47
2023-11-15T23:38:04.740Z,101340.75
2023-11-15T23:40:32.216Z,101337.72
2023-11-15T23:42:59.182Z,101336.75
2023-11-15T23:45:26.279Z,101330.53
2023-11-15T23:47:53.909Z,101325.16
2023-11-15T23:50:24.542Z,101337.47
2023-11-15T23:52:54.665Z,101331.50
2023-11-15T23:55:22.551Z,101330.94
2023-11-15T23:57:50.337Z,101326.25
